sensor_id;sensor_type;location;lat;lon;timestamp;P1;durP1;ratioP1;P2;durP2;ratioP2
25824;SDS011;13658;44.534;18.694;2024-01-07T00:00:01;136.10;;;65.95;;
25824;SDS011;13658;44.534;18.694;2024-01-07T00:02:29;135.00;;;67.18;;
25824;SDS011;13658;44.534;18.694;2024-01-07T00:04:58;170.20;;;84.03;;
25824;SDS011;13658;44.534;18.694;2024-01-07T00:07:24;200.57;;;102.85;;
25824;SDS011;13658;44.534;18.694;2024-01-07T00:09:50;181.45;;;92.43;;
25824;SDS011;13658;44.534;18.694;2024-01-07T00:12:16;144.00;;;72.65;;
25824;SDS011;13658;44.534;18.694;2024-01-07T00:14:42;134.50;;;63.55;;
25824;SDS011;13658;44.534;18.694;2024-01-07T00:17:10;117.05;;;58.55;;
25824;SDS011;13658;44.534;18.694;2024-01-07T00:19:36;118.60;;;56.65;;
25824;SDS011;13658;44.534;18.694;2024-01-07T00:22:02;110.63;;;56.22;;
25824;SDS011;13658;44.534;18.694;2024-01-07T00:24:29;107.57;;;55.85;;
25824;SDS011;13658;44.534;18.694;2024-01-07T00:26:55;97.78;;;51.67;;
25824;SDS011;13658;44.534;18.694;2024-01-07T00:29:21;104.65;;;52.65;;
25824;SDS011;13658;44.534;18.694;2024-01-07T00:31:47;109.00;;;54.78;;
25824;SDS011;13658;44.534;18.694;2024-01-07T00:34:13;102.80;;;52.13;;
25824;SDS011;13658;44.534;18.694;2024-01-07T00:36:39;101.43;;;51.15;;
25824;SDS011;13658;44.534;18.694;2024-01-07T00:39:05;100.53;;;51.20;;
25824;SDS011;13658;44.534;18.694;2024-01-07T00:41:31;98.35;;;50.55;;
25824;SDS011;13658;44.534;18.694;2024-01-07T00:43:57;88.53;;;45.78;;
25824;SDS011;13658;44.534;18.694;2024-01-07T00:46:23;80.35;;;42.03;;
25824;SDS011;13658;44.534;18.694;2024-01-07T00:48:49;90.68;;;45.85;;
25824;SDS011;13658;44.534;18.694;2024-01-07T00:51:15;81.30;;;43.20;;
25824;SDS011;13658;44.534;18.694;2024-01-07T00:53:41;87.47;;;46.25;;
25824;SDS011;13658;44.534;18.694;2024-01-07T00:56:07;87.25;;;45.08;;
25824;SDS011;13658;44.534;18.694;2024-01-07T00:58:33;87.20;;;42.83;;
25824;SDS011;13658;44.534;18.694;2024-01-07T01:01:01;78.30;;;39.95;;
25824;SDS011;13658;44.534;18.694;2024-01-07T01:03:27;82.55;;;42.15;;
25824;SDS011;13658;44.534;18.694;2024-01-07T01:05:52;125.07;;;60.70;;
25824;SDS011;13658;44.534;18.694;2024-01-07T01:08:18;122.55;;;59.05;;
25824;SDS011;13658;44.534;18.694;2024-01-07T01:10:44;110.85;;;54.35;;
25824;SDS011;13658;44.534;18.694;2024-01-07T01:13:11;104.35;;;51.80;;
25824;SDS011;13658;44.534;18.694;2024-01-07T01:15:37;80.13;;;39.58;;
25824;SDS011;13658;44.534;18.694;2024-01-07T01:18:03;77.82;;;40.67;;
25824;SDS011;13658;44.534;18.694;2024-01-07T01:20:29;80.95;;;40.35;;
25824;SDS011;13658;44.534;18.694;2024-01-07T01:22:55;78.95;;;40.67;;
25824;SDS011;13658;44.534;18.694;2024-01-07T01:25:22;92.30;;;43.40;;
25824;SDS011;13658;44.534;18.694;2024-01-07T01:27:47;80.60;;;42.78;;
25824;SDS011;13658;44.534;18.694;2024-01-07T01:30:13;100.18;;;50.88;;
25824;SDS011;13658;44.534;18.694;2024-01-07T01:32:39;101.65;;;50.00;;
25824;SDS011;13658;44.534;18.694;2024-01-07T01:35:06;101.05;;;50.42;;
25824;SDS011;13658;44.534;18.694;2024-01-07T01:37:32;75.45;;;39.10;;
25824;SDS011;13658;44.534;18.694;2024-01-07T01:39:59;83.75;;;39.13;;
25824;SDS011;13658;44.534;18.694;2024-01-07T01:42:25;68.90;;;35.20;;
25824;SDS011;13658;44.534;18.694;2024-01-07T01:44:51;64.70;;;33.95;;
25824;SDS011;13658;44.534;18.694;2024-01-07T01:47:17;73.15;;;34.92;;
25824;SDS011;13658;44.534;18.694;2024-01-07T01:49:43;73.03;;;37.08;;
25824;SDS011;13658;44.534;18.694;2024-01-07T01:52:11;83.93;;;42.70;;
25824;SDS011;13658;44.534;18.694;2024-01-07T01:54:38;97.18;;;50.60;;
25824;SDS011;13658;44.534;18.694;2024-01-07T01:57:04;81.97;;;46.17;;
25824;SDS011;13658;44.534;18.694;2024-01-07T01:59:31;86.13;;;44.38;;
25824;SDS011;13658;44.534;18.694;2024-01-07T02:01:59;87.13;;;45.17;;
25824;SDS011;13658;44.534;18.694;2024-01-07T02:04:26;80.38;;;44.20;;
25824;SDS011;13658;44.534;18.694;2024-01-07T02:06:52;84.70;;;45.30;;
25824;SDS011;13658;44.534;18.694;2024-01-07T02:09:19;84.35;;;45.15;;
25824;SDS011;13658;44.534;18.694;2024-01-07T02:11:59;81.40;;;45.63;;
25824;SDS011;13658;44.534;18.694;2024-01-07T02:14:27;78.53;;;45.92;;
25824;SDS011;13658;44.534;18.694;2024-01-07T02:16:53;89.93;;;47.17;;
25824;SDS011;13658;44.534;18.694;2024-01-07T02:19:19;83.10;;;46.05;;
25824;SDS011;13658;44.534;18.694;2024-01-07T02:21:47;88.70;;;47.78;;
25824;SDS011;13658;44.534;18.694;2024-01-07T02:24:15;85.75;;;46.03;;
25824;SDS011;13658;44.534;18.694;2024-01-07T02:26:42;87.60;;;47.72;;
25824;SDS011;13658;44.534;18.694;2024-01-07T02:29:08;87.32;;;49.42;;
25824;SDS011;13658;44.534;18.694;2024-01-07T02:31:33;87.28;;;48.58;;
25824;SDS011;13658;44.534;18.694;2024-01-07T02:33:59;87.22;;;47.95;;
25824;SDS011;13658;44.534;18.694;2024-01-07T02:36:25;84.63;;;49.15;;
25824;SDS011;13658;44.534;18.694;2024-01-07T02:38:51;84.75;;;48.38;;
25824;SDS011;13658;44.534;18.694;2024-01-07T02:41:17;84.78;;;48.72;;
25824;SDS011;13658;44.534;18.694;2024-01-07T02:43:45;85.72;;;47.38;;
25824;SDS011;13658;44.534;18.694;2024-01-07T02:46:11;83.78;;;45.65;;
25824;SDS011;13658;44.534;18.694;2024-01-07T02:48:37;83.63;;;45.33;;
25824;SDS011;13658;44.534;18.694;2024-01-07T02:51:03;78.95;;;44.05;;
25824;SDS011;13658;44.534;18.694;2024-01-07T02:53:30;74.38;;;42.58;;
25824;SDS011;13658;44.534;18.694;2024-01-07T02:55:56;76.70;;;41.85;;
25824;SDS011;13658;44.534;18.694;2024-01-07T02:58:22;74.55;;;41.08;;
25824;SDS011;13658;44.534;18.694;2024-01-07T03:00:48;79.30;;;42.58;;
25824;SDS011;13658;44.534;18.694;2024-01-07T03:03:14;75.68;;;41.83;;
25824;SDS011;13658;44.534;18.694;2024-01-07T03:05:40;73.57;;;42.42;;
25824;SDS011;13658;44.534;18.694;2024-01-07T03:08:06;74.32;;;40.70;;
25824;SDS011;13658;44.534;18.694;2024-01-07T03:10:33;77.20;;;41.80;;
25824;SDS011;13658;44.534;18.694;2024-01-07T03:13:00;73.35;;;41.10;;
25824;SDS011;13658;44.534;18.694;2024-01-07T03:15:26;70.35;;;40.20;;
25824;SDS011;13658;44.534;18.694;2024-01-07T03:17:52;73.32;;;41.72;;
25824;SDS011;13658;44.534;18.694;2024-01-07T03:20:18;72.28;;;39.88;;
25824;SDS011;13658;44.534;18.694;2024-01-07T03:22:44;69.90;;;39.35;;
25824;SDS011;13658;44.534;18.694;2024-01-07T03:25:09;70.35;;;39.40;;
25824;SDS011;13658;44.534;18.694;2024-01-07T03:27:36;74.95;;;40.28;;
25824;SDS011;13658;44.534;18.694;2024-01-07T03:30:02;67.15;;;39.15;;
25824;SDS011;13658;44.534;18.694;2024-01-07T03:32:28;68.80;;;40.05;;
25824;SDS011;13658;44.534;18.694;2024-01-07T03:34:54;66.30;;;38.50;;
25824;SDS011;13658;44.534;18.694;2024-01-07T03:37:20;68.22;;;36.88;;
25824;SDS011;13658;44.534;18.694;2024-01-07T03:39:47;62.40;;;36.70;;
25824;SDS011;13658;44.534;18.694;2024-01-07T03:42:13;64.13;;;36.13;;
25824;SDS011;13658;44.534;18.694;2024-01-07T03:44:39;62.03;;;36.45;;
25824;SDS011;13658;44.534;18.694;2024-01-07T03:47:06;68.57;;;36.78;;
25824;SDS011;13658;44.534;18.694;2024-01-07T03:49:32;63.45;;;35.22;;
25824;SDS011;13658;44.534;18.694;2024-01-07T03:51:58;66.72;;;37.17;;
25824;SDS011;13658;44.534;18.694;2024-01-07T03:54:24;61.00;;;35.50;;
25824;SDS011;13658;44.534;18.694;2024-01-07T03:56:50;67.78;;;37.58;;
25824;SDS011;13658;44.534;18.694;2024-01-07T03:59:15;60.47;;;36.45;;
25824;SDS011;13658;44.534;18.694;2024-01-07T04:01:41;61.78;;;36.05;;
25824;SDS011;13658;44.534;18.694;2024-01-07T04:04:07;62.72;;;36.13;;
25824;SDS011;13658;44.534;18.694;2024-01-07T04:06:33;68.00;;;36.75;;
25824;SDS011;13658;44.534;18.694;2024-01-07T04:08:59;58.53;;;33.53;;
25824;SDS011;13658;44.534;18.694;2024-01-07T04:11:25;57.85;;;34.28;;
25824;SDS011;13658;44.534;18.694;2024-01-07T04:13:51;62.63;;;35.50;;
25824;SDS011;13658;44.534;18.694;2024-01-07T04:16:20;61.00;;;34.00;;
25824;SDS011;13658;44.534;18.694;2024-01-07T04:18:46;61.90;;;34.65;;
25824;SDS011;13658;44.534;18.694;2024-01-07T04:21:13;64.18;;;34.00;;
25824;SDS011;13658;44.534;18.694;2024-01-07T04:23:39;62.67;;;35.20;;
25824;SDS011;13658;44.534;18.694;2024-01-07T04:26:09;60.15;;;33.25;;
25824;SDS011;13658;44.534;18.694;2024-01-07T04:28:35;58.03;;;34.20;;
25824;SDS011;13658;44.534;18.694;2024-01-07T04:31:01;58.53;;;33.28;;
25824;SDS011;13658;44.534;18.694;2024-01-07T04:33:27;60.00;;;33.00;;
25824;SDS011;13658;44.534;18.694;2024-01-07T04:35:53;59.45;;;32.40;;
25824;SDS011;13658;44.534;18.694;2024-01-07T04:38:23;55.20;;;31.42;;
25824;SDS011;13658;44.534;18.694;2024-01-07T04:40:50;58.70;;;33.13;;
25824;SDS011;13658;44.534;18.694;2024-01-07T04:43:20;56.85;;;32.05;;
25824;SDS011;13658;44.534;18.694;2024-01-07T04:45:46;55.53;;;32.30;;
25824;SDS011;13658;44.534;18.694;2024-01-07T04:48:13;55.70;;;31.33;;
25824;SDS011;13658;44.534;18.694;2024-01-07T04:50:42;58.75;;;31.55;;
25824;SDS011;13658;44.534;18.694;2024-01-07T04:53:08;55.47;;;31.02;;
25824;SDS011;13658;44.534;18.694;2024-01-07T04:55:35;55.83;;;30.92;;
25824;SDS011;13658;44.534;18.694;2024-01-07T04:58:02;58.38;;;33.00;;
25824;SDS011;13658;44.534;18.694;2024-01-07T05:00:30;59.35;;;33.63;;
25824;SDS011;13658;44.534;18.694;2024-01-07T05:02:56;57.25;;;33.08;;
25824;SDS011;13658;44.534;18.694;2024-01-07T05:05:22;62.42;;;33.50;;
25824;SDS011;13658;44.534;18.694;2024-01-07T05:07:48;61.22;;;33.40;;
25824;SDS011;13658;44.534;18.694;2024-01-07T05:10:14;60.08;;;33.45;;
25824;SDS011;13658;44.534;18.694;2024-01-07T05:12:40;62.78;;;33.42;;
25824;SDS011;13658;44.534;18.694;2024-01-07T05:15:06;66.63;;;34.85;;
25824;SDS011;13658;44.534;18.694;2024-01-07T05:17:33;64.65;;;34.33;;
25824;SDS011;13658;44.534;18.694;2024-01-07T05:19:58;65.40;;;34.58;;
25824;SDS011;13658;44.534;18.694;2024-01-07T05:22:24;59.60;;;33.10;;
25824;SDS011;13658;44.534;18.694;2024-01-07T05:24:50;59.80;;;33.60;;
25824;SDS011;13658;44.534;18.694;2024-01-07T05:27:16;60.33;;;32.42;;
25824;SDS011;13658;44.534;18.694;2024-01-07T05:29:45;62.60;;;33.22;;
25824;SDS011;13658;44.534;18.694;2024-01-07T05:32:12;60.38;;;33.65;;
25824;SDS011;13658;44.534;18.694;2024-01-07T05:34:38;62.72;;;32.60;;
25824;SDS011;13658;44.534;18.694;2024-01-07T05:37:04;58.00;;;32.72;;
25824;SDS011;13658;44.534;18.694;2024-01-07T05:39:30;63.10;;;33.20;;
25824;SDS011;13658;44.534;18.694;2024-01-07T05:41:56;56.20;;;31.63;;
25824;SDS011;13658;44.534;18.694;2024-01-07T05:44:22;56.85;;;32.33;;
25824;SDS011;13658;44.534;18.694;2024-01-07T05:46:47;59.10;;;32.63;;
25824;SDS011;13658;44.534;18.694;2024-01-07T05:49:13;60.47;;;32.92;;
25824;SDS011;13658;44.534;18.694;2024-01-07T05:51:40;58.03;;;31.90;;
25824;SDS011;13658;44.534;18.694;2024-01-07T05:54:06;62.85;;;32.88;;
25824;SDS011;13658;44.534;18.694;2024-01-07T05:56:32;64.53;;;31.70;;
25824;SDS011;13658;44.534;18.694;2024-01-07T05:58:58;60.45;;;32.63;;
25824;SDS011;13658;44.534;18.694;2024-01-07T06:01:24;59.17;;;32.03;;
25824;SDS011;13658;44.534;18.694;2024-01-07T06:03:50;58.45;;;31.15;;
25824;SDS011;13658;44.534;18.694;2024-01-07T06:06:15;58.78;;;30.38;;
25824;SDS011;13658;44.534;18.694;2024-01-07T06:08:41;55.10;;;29.92;;
25824;SDS011;13658;44.534;18.694;2024-01-07T06:11:08;58.65;;;31.13;;
25824;SDS011;13658;44.534;18.694;2024-01-07T06:13:34;57.80;;;29.65;;
25824;SDS011;13658;44.534;18.694;2024-01-07T06:16:00;55.38;;;29.70;;
25824;SDS011;13658;44.534;18.694;2024-01-07T06:18:26;59.03;;;30.20;;
25824;SDS011;13658;44.534;18.694;2024-01-07T06:20:52;54.78;;;29.35;;
25824;SDS011;13658;44.534;18.694;2024-01-07T06:23:18;62.17;;;31.17;;
25824;SDS011;13658;44.534;18.694;2024-01-07T06:25:44;52.95;;;29.33;;
25824;SDS011;13658;44.534;18.694;2024-01-07T06:28:10;56.90;;;29.27;;
25824;SDS011;13658;44.534;18.694;2024-01-07T06:30:36;55.53;;;29.95;;
25824;SDS011;13658;44.534;18.694;2024-01-07T06:33:02;54.65;;;29.15;;
25824;SDS011;13658;44.534;18.694;2024-01-07T06:35:28;54.53;;;29.25;;
25824;SDS011;13658;44.534;18.694;2024-01-07T06:37:54;55.72;;;29.40;;
25824;SDS011;13658;44.534;18.694;2024-01-07T06:40:20;57.08;;;29.45;;
25824;SDS011;13658;44.534;18.694;2024-01-07T06:42:46;58.78;;;29.60;;
25824;SDS011;13658;44.534;18.694;2024-01-07T06:45:14;55.10;;;29.52;;
25824;SDS011;13658;44.534;18.694;2024-01-07T06:47:40;59.72;;;30.08;;
25824;SDS011;13658;44.534;18.694;2024-01-07T06:50:07;54.00;;;29.25;;
25824;SDS011;13658;44.534;18.694;2024-01-07T06:52:33;53.47;;;30.00;;
25824;SDS011;13658;44.534;18.694;2024-01-07T06:54:59;57.25;;;29.55;;
25824;SDS011;13658;44.534;18.694;2024-01-07T06:57:25;55.58;;;30.13;;
25824;SDS011;13658;44.534;18.694;2024-01-07T06:59:50;53.58;;;30.83;;
25824;SDS011;13658;44.534;18.694;2024-01-07T07:02:16;57.70;;;30.45;;
25824;SDS011;13658;44.534;18.694;2024-01-07T07:04:42;53.90;;;30.70;;
25824;SDS011;13658;44.534;18.694;2024-01-07T07:07:08;59.95;;;30.98;;
25824;SDS011;13658;44.534;18.694;2024-01-07T07:09:34;59.70;;;30.98;;
25824;SDS011;13658;44.534;18.694;2024-01-07T07:12:00;57.50;;;30.10;;
25824;SDS011;13658;44.534;18.694;2024-01-07T07:14:26;61.97;;;33.20;;
25824;SDS011;13658;44.534;18.694;2024-01-07T07:16:52;60.60;;;34.20;;
25824;SDS011;13658;44.534;18.694;2024-01-07T07:19:18;59.38;;;32.38;;
25824;SDS011;13658;44.534;18.694;2024-01-07T07:21:44;63.50;;;33.60;;
25824;SDS011;13658;44.534;18.694;2024-01-07T07:24:10;58.63;;;32.22;;
25824;SDS011;13658;44.534;18.694;2024-01-07T07:26:36;63.60;;;32.75;;
25824;SDS011;13658;44.534;18.694;2024-01-07T07:29:06;59.20;;;33.30;;
25824;SDS011;13658;44.534;18.694;2024-01-07T07:31:35;58.35;;;32.80;;
25824;SDS011;13658;44.534;18.694;2024-01-07T07:34:03;61.67;;;33.17;;
25824;SDS011;13658;44.534;18.694;2024-01-07T07:36:29;61.85;;;32.97;;
25824;SDS011;13658;44.534;18.694;2024-01-07T07:38:55;58.90;;;32.63;;
25824;SDS011;13658;44.534;18.694;2024-01-07T07:41:21;54.95;;;30.35;;
25824;SDS011;13658;44.534;18.694;2024-01-07T07:43:47;60.22;;;32.38;;
25824;SDS011;13658;44.534;18.694;2024-01-07T07:46:13;56.22;;;31.10;;
25824;SDS011;13658;44.534;18.694;2024-01-07T07:48:41;57.78;;;31.30;;
25824;SDS011;13658;44.534;18.694;2024-01-07T07:51:07;55.83;;;30.70;;
25824;SDS011;13658;44.534;18.694;2024-01-07T07:53:33;52.20;;;29.58;;
25824;SDS011;13658;44.534;18.694;2024-01-07T07:55:59;53.38;;;30.35;;
25824;SDS011;13658;44.534;18.694;2024-01-07T07:58:26;56.92;;;31.23;;
25824;SDS011;13658;44.534;18.694;2024-01-07T08:00:52;64.65;;;32.58;;
25824;SDS011;13658;44.534;18.694;2024-01-07T08:03:18;56.25;;;31.58;;
25824;SDS011;13658;44.534;18.694;2024-01-07T08:05:43;54.45;;;30.42;;
25824;SDS011;13658;44.534;18.694;2024-01-07T08:08:09;59.60;;;32.00;;
25824;SDS011;13658;44.534;18.694;2024-01-07T08:10:35;56.08;;;32.67;;
25824;SDS011;13658;44.534;18.694;2024-01-07T08:13:01;62.42;;;32.38;;
25824;SDS011;13658;44.534;18.694;2024-01-07T08:15:27;59.10;;;31.80;;
25824;SDS011;13658;44.534;18.694;2024-01-07T08:17:53;53.80;;;30.98;;
25824;SDS011;13658;44.534;18.694;2024-01-07T08:20:19;60.05;;;33.95;;
25824;SDS011;13658;44.534;18.694;2024-01-07T08:22:45;57.30;;;32.15;;
25824;SDS011;13658;44.534;18.694;2024-01-07T08:25:11;59.95;;;31.45;;
25824;SDS011;13658;44.534;18.694;2024-01-07T08:27:40;60.38;;;32.28;;
25824;SDS011;13658;44.534;18.694;2024-01-07T08:30:06;58.90;;;32.45;;
25824;SDS011;13658;44.534;18.694;2024-01-07T08:32:32;58.17;;;33.75;;
25824;SDS011;13658;44.534;18.694;2024-01-07T08:35:00;56.38;;;31.63;;
25824;SDS011;13658;44.534;18.694;2024-01-07T08:37:26;57.28;;;31.63;;
25824;SDS011;13658;44.534;18.694;2024-01-07T08:39:52;53.90;;;30.92;;
25824;SDS011;13658;44.534;18.694;2024-01-07T08:42:18;56.92;;;32.45;;
25824;SDS011;13658;44.534;18.694;2024-01-07T08:44:44;58.58;;;32.45;;
25824;SDS011;13658;44.534;18.694;2024-01-07T08:47:10;55.53;;;31.23;;
25824;SDS011;13658;44.534;18.694;2024-01-07T08:49:36;58.20;;;32.55;;
25824;SDS011;13658;44.534;18.694;2024-01-07T08:52:04;61.05;;;32.97;;
25824;SDS011;13658;44.534;18.694;2024-01-07T08:54:30;63.00;;;34.13;;
25824;SDS011;13658;44.534;18.694;2024-01-07T08:56:56;64.28;;;32.33;;
25824;SDS011;13658;44.534;18.694;2024-01-07T08:59:22;54.45;;;30.73;;
25824;SDS011;13658;44.534;18.694;2024-01-07T09:01:48;57.78;;;31.73;;
25824;SDS011;13658;44.534;18.694;2024-01-07T09:04:14;51.83;;;30.02;;
25824;SDS011;13658;44.534;18.694;2024-01-07T09:06:41;59.95;;;32.15;;
25824;SDS011;13658;44.534;18.694;2024-01-07T09:09:07;63.72;;;34.33;;
25824;SDS011;13658;44.534;18.694;2024-01-07T09:11:33;63.60;;;35.65;;
25824;SDS011;13658;44.534;18.694;2024-01-07T09:14:00;69.85;;;37.65;;
25824;SDS011;13658;44.534;18.694;2024-01-07T09:16:26;79.28;;;42.35;;
25824;SDS011;13658;44.534;18.694;2024-01-07T09:18:52;72.30;;;41.13;;
25824;SDS011;13658;44.534;18.694;2024-01-07T09:21:18;72.72;;;39.35;;
25824;SDS011;13658;44.534;18.694;2024-01-07T09:23:44;69.53;;;39.47;;
25824;SDS011;13658;44.534;18.694;2024-01-07T09:26:10;67.47;;;36.75;;
25824;SDS011;13658;44.534;18.694;2024-01-07T09:28:36;65.38;;;36.03;;
25824;SDS011;13658;44.534;18.694;2024-01-07T09:31:02;63.08;;;34.90;;
25824;SDS011;13658;44.534;18.694;2024-01-07T09:33:28;57.72;;;33.85;;
25824;SDS011;13658;44.534;18.694;2024-01-07T09:35:54;60.05;;;34.35;;
25824;SDS011;13658;44.534;18.694;2024-01-07T09:38:20;57.20;;;32.33;;
25824;SDS011;13658;44.534;18.694;2024-01-07T09:40:46;57.35;;;35.45;;
25824;SDS011;13658;44.534;18.694;2024-01-07T09:43:13;54.47;;;33.25;;
25824;SDS011;13658;44.534;18.694;2024-01-07T09:45:39;62.58;;;35.50;;
25824;SDS011;13658;44.534;18.694;2024-01-07T09:48:11;69.90;;;38.45;;
25824;SDS011;13658;44.534;18.694;2024-01-07T09:50:37;69.78;;;38.15;;
25824;SDS011;13658;44.534;18.694;2024-01-07T09:53:02;70.68;;;39.05;;
25824;SDS011;13658;44.534;18.694;2024-01-07T09:55:33;72.82;;;40.33;;
25824;SDS011;13658;44.534;18.694;2024-01-07T09:58:03;64.47;;;36.38;;
25824;SDS011;13658;44.534;18.694;2024-01-07T10:00:29;71.50;;;40.92;;
25824;SDS011;13658;44.534;18.694;2024-01-07T10:02:55;67.38;;;36.50;;
25824;SDS011;13658;44.534;18.694;2024-01-07T10:05:21;61.95;;;35.90;;
25824;SDS011;13658;44.534;18.694;2024-01-07T10:07:47;65.38;;;36.55;;
25824;SDS011;13658;44.534;18.694;2024-01-07T10:10:14;57.45;;;33.78;;
25824;SDS011;13658;44.534;18.694;2024-01-07T10:12:40;59.63;;;35.03;;
25824;SDS011;13658;44.534;18.694;2024-01-07T10:15:06;60.95;;;34.63;;
25824;SDS011;13658;44.534;18.694;2024-01-07T10:17:33;64.50;;;37.67;;
25824;SDS011;13658;44.534;18.694;2024-01-07T10:19:58;65.22;;;37.15;;
25824;SDS011;13658;44.534;18.694;2024-01-07T10:22:24;63.65;;;37.50;;
25824;SDS011;13658;44.534;18.694;2024-01-07T10:24:51;59.78;;;34.15;;
25824;SDS011;13658;44.534;18.694;2024-01-07T10:27:17;57.67;;;31.90;;
25824;SDS011;13658;44.534;18.694;2024-01-07T10:29:43;62.50;;;37.03;;
25824;SDS011;13658;44.534;18.694;2024-01-07T10:32:15;66.88;;;38.78;;
25824;SDS011;13658;44.534;18.694;2024-01-07T10:34:44;63.33;;;35.70;;
25824;SDS011;13658;44.534;18.694;2024-01-07T10:37:12;65.93;;;38.17;;
25824;SDS011;13658;44.534;18.694;2024-01-07T10:39:38;64.13;;;37.88;;
25824;SDS011;13658;44.534;18.694;2024-01-07T10:42:04;66.95;;;40.72;;
25824;SDS011;13658;44.534;18.694;2024-01-07T10:44:32;73.43;;;41.05;;
25824;SDS011;13658;44.534;18.694;2024-01-07T10:46:59;70.30;;;40.08;;
25824;SDS011;13658;44.534;18.694;2024-01-07T10:49:26;64.88;;;37.53;;
25824;SDS011;13658;44.534;18.694;2024-01-07T10:51:56;51.55;;;32.30;;
25824;SDS011;13658;44.534;18.694;2024-01-07T10:54:32;53.47;;;32.40;;
25824;SDS011;13658;44.534;18.694;2024-01-07T10:57:46;63.67;;;37.30;;
25824;SDS011;13658;44.534;18.694;2024-01-07T10:59:52;50.85;;;30.77;;
25824;SDS011;13658;44.534;18.694;2024-01-07T11:02:19;51.90;;;32.22;;
25824;SDS011;13658;44.534;18.694;2024-01-07T11:07:45;52.97;;;31.67;;
25824;SDS011;13658;44.534;18.694;2024-01-07T11:10:22;47.60;;;28.75;;
25824;SDS011;13658;44.534;18.694;2024-01-07T11:12:56;45.15;;;26.58;;
25824;SDS011;13658;44.534;18.694;2024-01-07T11:16:10;50.63;;;30.58;;
25824;SDS011;13658;44.534;18.694;2024-01-07T11:18:21;52.38;;;31.98;;
25824;SDS011;13658;44.534;18.694;2024-01-07T11:20:48;54.28;;;32.75;;
25824;SDS011;13658;44.534;18.694;2024-01-07T11:23:33;58.15;;;35.03;;
25824;SDS011;13658;44.534;18.694;2024-01-07T11:26:05;58.47;;;34.97;;
25824;SDS011;13658;44.534;18.694;2024-01-07T11:28:44;57.67;;;35.50;;
25824;SDS011;13658;44.534;18.694;2024-01-07T11:31:12;57.22;;;34.17;;
25824;SDS011;13658;44.534;18.694;2024-01-07T11:33:38;55.13;;;32.72;;
25824;SDS011;13658;44.534;18.694;2024-01-07T11:36:07;53.17;;;32.53;;
25824;SDS011;13658;44.534;18.694;2024-01-07T11:38:36;56.65;;;33.90;;
25824;SDS011;13658;44.534;18.694;2024-01-07T11:41:04;50.92;;;30.58;;
25824;SDS011;13658;44.534;18.694;2024-01-07T11:43:32;56.42;;;32.83;;
25824;SDS011;13658;44.534;18.694;2024-01-07T11:46:00;59.08;;;36.58;;
25824;SDS011;13658;44.534;18.694;2024-01-07T11:48:26;55.00;;;33.00;;
25824;SDS011;13658;44.534;18.694;2024-01-07T11:50:52;56.15;;;32.90;;
25824;SDS011;13658;44.534;18.694;2024-01-07T11:53:19;55.13;;;32.83;;
25824;SDS011;13658;44.534;18.694;2024-01-07T11:55:46;56.42;;;33.53;;
25824;SDS011;13658;44.534;18.694;2024-01-07T11:58:13;61.05;;;35.42;;
25824;SDS011;13658;44.534;18.694;2024-01-07T12:00:39;63.13;;;36.53;;
25824;SDS011;13658;44.534;18.694;2024-01-07T12:03:05;60.92;;;36.38;;
25824;SDS011;13658;44.534;18.694;2024-01-07T12:05:31;61.72;;;36.53;;
25824;SDS011;13658;44.534;18.694;2024-01-07T12:07:57;60.40;;;33.92;;
25824;SDS011;13658;44.534;18.694;2024-01-07T12:10:25;56.97;;;34.40;;
25824;SDS011;13658;44.534;18.694;2024-01-07T12:12:51;61.42;;;36.65;;
25824;SDS011;13658;44.534;18.694;2024-01-07T12:15:18;57.88;;;33.80;;
25824;SDS011;13658;44.534;18.694;2024-01-07T12:17:55;55.72;;;33.10;;
25824;SDS011;13658;44.534;18.694;2024-01-07T12:20:22;53.58;;;32.47;;
25824;SDS011;13658;44.534;18.694;2024-01-07T12:22:48;53.47;;;32.17;;
25824;SDS011;13658;44.534;18.694;2024-01-07T12:25:20;54.80;;;32.78;;
25824;SDS011;13658;44.534;18.694;2024-01-07T12:27:48;63.20;;;36.65;;
25824;SDS011;13658;44.534;18.694;2024-01-07T12:30:20;59.03;;;35.63;;
25824;SDS011;13658;44.534;18.694;2024-01-07T12:32:51;63.13;;;37.13;;
25824;SDS011;13658;44.534;18.694;2024-01-07T12:35:17;64.50;;;37.03;;
25824;SDS011;13658;44.534;18.694;2024-01-07T12:37:43;65.93;;;38.80;;
25824;SDS011;13658;44.534;18.694;2024-01-07T12:40:10;66.15;;;38.53;;
25824;SDS011;13658;44.534;18.694;2024-01-07T12:42:40;62.33;;;36.70;;
25824;SDS011;13658;44.534;18.694;2024-01-07T12:45:13;60.97;;;38.42;;
25824;SDS011;13658;44.534;18.694;2024-01-07T12:47:42;64.90;;;38.45;;
25824;SDS011;13658;44.534;18.694;2024-01-07T12:50:09;54.63;;;33.60;;
25824;SDS011;13658;44.534;18.694;2024-01-07T12:52:39;51.90;;;30.00;;
25824;SDS011;13658;44.534;18.694;2024-01-07T12:55:05;41.75;;;25.35;;
25824;SDS011;13658;44.534;18.694;2024-01-07T12:57:32;40.15;;;24.75;;
25824;SDS011;13658;44.534;18.694;2024-01-07T12:59:59;46.22;;;28.15;;
25824;SDS011;13658;44.534;18.694;2024-01-07T13:02:25;49.83;;;29.48;;
25824;SDS011;13658;44.534;18.694;2024-01-07T13:04:52;51.20;;;30.65;;
25824;SDS011;13658;44.534;18.694;2024-01-07T13:07:18;51.75;;;30.08;;
25824;SDS011;13658;44.534;18.694;2024-01-07T13:09:44;50.92;;;30.30;;
25824;SDS011;13658;44.534;18.694;2024-01-07T13:12:10;45.72;;;28.35;;
25824;SDS011;13658;44.534;18.694;2024-01-07T13:14:36;48.47;;;28.23;;
25824;SDS011;13658;44.534;18.694;2024-01-07T13:17:02;49.63;;;29.83;;
25824;SDS011;13658;44.534;18.694;2024-01-07T13:19:29;49.97;;;29.02;;
25824;SDS011;13658;44.534;18.694;2024-01-07T13:21:55;50.80;;;30.58;;
25824;SDS011;13658;44.534;18.694;2024-01-07T13:24:23;55.10;;;32.08;;
25824;SDS011;13658;44.534;18.694;2024-01-07T13:26:49;66.45;;;38.20;;
25824;SDS011;13658;44.534;18.694;2024-01-07T13:29:15;58.05;;;35.08;;
25824;SDS011;13658;44.534;18.694;2024-01-07T13:31:41;58.88;;;35.22;;
25824;SDS011;13658;44.534;18.694;2024-01-07T13:34:08;63.58;;;37.30;;
25824;SDS011;13658;44.534;18.694;2024-01-07T13:36:34;68.32;;;40.42;;
25824;SDS011;13658;44.534;18.694;2024-01-07T13:39:00;68.20;;;40.65;;
25824;SDS011;13658;44.534;18.694;2024-01-07T13:41:26;80.10;;;45.85;;
25824;SDS011;13658;44.534;18.694;2024-01-07T13:43:54;83.95;;;48.78;;
25824;SDS011;13658;44.534;18.694;2024-01-07T13:46:21;89.00;;;48.15;;
25824;SDS011;13658;44.534;18.694;2024-01-07T13:48:50;68.97;;;39.97;;
25824;SDS011;13658;44.534;18.694;2024-01-07T13:51:20;62.28;;;35.85;;
25824;SDS011;13658;44.534;18.694;2024-01-07T13:53:46;67.20;;;38.22;;
25824;SDS011;13658;44.534;18.694;2024-01-07T13:56:12;57.50;;;33.60;;
25824;SDS011;13658;44.534;18.694;2024-01-07T13:58:38;55.80;;;32.25;;
25824;SDS011;13658;44.534;18.694;2024-01-07T14:01:04;59.30;;;35.22;;
25824;SDS011;13658;44.534;18.694;2024-01-07T14:03:30;53.97;;;33.67;;
25824;SDS011;13658;44.534;18.694;2024-01-07T14:05:58;52.53;;;29.98;;
25824;SDS011;13658;44.534;18.694;2024-01-07T14:08:25;56.83;;;32.67;;